Attica Junction, Ohio
Current Conditions -  °F | °C
As of 12:52 PM on Friday 28 Nov 2014 (Local Time) from KMFD Reporting Station
Overcast Overcast  
Wind Chill: -8°   Ceiling: 2700
Heat Index: -3°   Visibility: 10mi
Dew Point: -8°   Wind: 8mph
Humidity: 71%   Direction: 210°SSW
Pressure: 30.25"   Gusts: NA
Location:  41.0654°N, 82.876°W
Report Text: KMFD 281752Z 21007KT 10SM OVC027 M03/M08 A3025 RMK AO2 SLP260 60000 T10331078 11028 21067 58024
Loading
Personal Weather Stations






























Interactive Weather Map New forecast layout! Learn more

10-Day Weather Forecast

Advertisements
Track Severe Weather on mobile